createdAt,value
2018-09-18T00:00:56.714Z,13.30
2018-09-18T00:03:25.236Z,13.30
2018-09-18T00:05:53.738Z,13.30
2018-09-18T00:08:22.342Z,13.30
2018-09-18T00:10:50.851Z,13.30
2018-09-18T00:13:19.410Z,13.30
2018-09-18T00:15:47.982Z,13.30
2018-09-18T00:18:16.423Z,13.20
2018-09-18T00:20:44.883Z,13.20
2018-09-18T00:23:13.391Z,13.10
2018-09-18T00:25:41.920Z,13.10
2018-09-18T00:28:10.436Z,13.10
2018-09-18T00:30:39.008Z,13.10
2018-09-18T00:33:07.566Z,13.10
2018-09-18T00:35:36.072Z,13.00
2018-09-18T00:38:04.670Z,13.10
2018-09-18T00:40:33.211Z,13.10
2018-09-18T00:43:01.729Z,13.10
2018-09-18T00:45:30.211Z,13.10
2018-09-18T00:47:58.678Z,13.10
2018-09-18T00:50:27.433Z,13.10
2018-09-18T00:52:55.937Z,13.10
2018-09-18T00:55:24.506Z,13.00
2018-09-18T00:57:53.009Z,13.00
2018-09-18T01:00:21.469Z,12.90
2018-09-18T01:02:49.964Z,13.00
2018-09-18T01:05:18.564Z,12.90
2018-09-18T01:07:47.083Z,12.90
2018-09-18T01:10:15.577Z,12.90
2018-09-18T01:12:44.033Z,12.90
2018-09-18T01:15:12.589Z,12.90
2018-09-18T01:17:41.219Z,12.90
2018-09-18T01:20:10.405Z,12.90
2018-09-18T01:22:38.825Z,12.80
2018-09-18T01:25:07.403Z,12.80
2018-09-18T01:27:35.882Z,12.80
2018-09-18T01:30:04.657Z,12.80
2018-09-18T01:32:33.178Z,12.80
2018-09-18T01:35:01.740Z,12.80
2018-09-18T01:37:30.307Z,12.80
2018-09-18T01:39:58.780Z,12.70
2018-09-18T01:42:27.267Z,12.70
2018-09-18T01:44:55.833Z,12.70
2018-09-18T01:47:24.351Z,12.70
2018-09-18T01:49:52.880Z,12.70
2018-09-18T01:52:21.399Z,12.70
2018-09-18T01:54:49.945Z,12.60
2018-09-18T01:57:18.462Z,12.60
2018-09-18T01:59:47.092Z,12.70
2018-09-18T02:02:15.549Z,12.60
2018-09-18T02:04:43.993Z,12.60
2018-09-18T02:07:12.542Z,12.60
2018-09-18T02:09:41.023Z,12.50
2018-09-18T02:12:09.494Z,12.50
2018-09-18T02:14:38.030Z,12.40
2018-09-18T02:17:06.722Z,12.40
2018-09-18T02:19:35.303Z,12.40
2018-09-18T02:22:03.878Z,12.30
2018-09-18T02:24:32.349Z,12.30
2018-09-18T02:27:00.822Z,12.30
2018-09-18T02:29:29.318Z,12.30
2018-09-18T02:31:57.878Z,12.30
2018-09-18T02:34:26.378Z,12.30
2018-09-18T02:36:54.913Z,12.30
2018-09-18T02:39:23.405Z,12.30
2018-09-18T02:41:51.976Z,12.30
2018-09-18T02:44:20.472Z,12.20
2018-09-18T02:46:49.010Z,12.10
2018-09-18T02:49:17.516Z,12.20
2018-09-18T02:51:46.039Z,12.20
2018-09-18T02:54:14.562Z,12.10
2018-09-18T02:56:43.053Z,12.10
2018-09-18T02:59:11.527Z,12.10
2018-09-18T03:01:40.001Z,12.10
2018-09-18T03:04:08.478Z,12.10
2018-09-18T03:06:37.027Z,12.30
2018-09-18T03:09:07.796Z,12.30
2018-09-18T03:11:36.312Z,12.30
2018-09-18T03:14:04.781Z,12.40
2018-09-18T03:16:33.387Z,12.50
2018-09-18T03:19:01.895Z,12.70
2018-09-18T03:21:30.409Z,12.80
2018-09-18T03:23:58.954Z,12.70
2018-09-18T03:26:27.571Z,12.60
2018-09-18T03:28:56.018Z,12.50
2018-09-18T03:31:24.558Z,12.50
2018-09-18T03:33:53.147Z,12.50
2018-09-18T03:36:21.651Z,12.50
2018-09-18T03:38:50.185Z,12.50
2018-09-18T03:41:18.656Z,12.50
2018-09-18T03:43:47.106Z,12.50
2018-09-18T03:46:15.621Z,12.40
2018-09-18T03:48:44.131Z,12.30
2018-09-18T03:51:12.645Z,12.20
2018-09-18T03:53:41.124Z,12.00
2018-09-18T03:56:09.618Z,12.10
2018-09-18T03:58:38.195Z,12.10
2018-09-18T04:01:06.822Z,12.00
2018-09-18T04:03:35.393Z,12.00
2018-09-18T04:06:03.917Z,12.00
2018-09-18T04:08:32.444Z,12.00
2018-09-18T04:11:00.923Z,11.90
2018-09-18T04:13:29.501Z,11.90
2018-09-18T04:15:58.048Z,11.80
2018-09-18T04:18:27.117Z,11.80
2018-09-18T04:20:55.719Z,11.80
2018-09-18T04:23:24.334Z,11.80
2018-09-18T04:25:52.835Z,11.80
2018-09-18T04:28:21.366Z,11.80
2018-09-18T04:30:49.910Z,11.80
2018-09-18T04:33:18.363Z,11.80
2018-09-18T04:35:46.841Z,11.80
2018-09-18T04:38:15.380Z,11.90
2018-09-18T04:40:43.929Z,11.90
2018-09-18T04:43:12.426Z,11.90
2018-09-18T04:45:40.982Z,11.80
2018-09-18T04:48:09.498Z,11.70
2018-09-18T04:50:38.045Z,11.90
2018-09-18T04:53:06.622Z,12.20
2018-09-18T04:55:35.092Z,12.30
2018-09-18T04:58:03.653Z,12.20
2018-09-18T05:00:32.145Z,12.10
2018-09-18T05:03:00.771Z,12.00
2018-09-18T05:05:29.451Z,12.00
2018-09-18T05:07:57.912Z,12.00
2018-09-18T05:10:26.452Z,12.00
2018-09-18T05:12:54.995Z,12.10
2018-09-18T05:15:23.564Z,12.10
2018-09-18T05:17:52.080Z,12.00
2018-09-18T05:20:20.543Z,11.90
2018-09-18T05:22:49.094Z,12.00
2018-09-18T05:25:17.590Z,12.00
2018-09-18T05:27:46.124Z,12.00
2018-09-18T05:30:14.594Z,12.20
2018-09-18T05:32:43.082Z,12.30
2018-09-18T05:35:11.553Z,12.50
2018-09-18T05:37:40.093Z,12.60
2018-09-18T05:40:08.594Z,12.80
2018-09-18T05:42:37.147Z,13.00
2018-09-18T05:45:05.814Z,13.30
2018-09-18T05:47:34.317Z,13.60
2018-09-18T05:50:02.803Z,14.00
2018-09-18T05:52:31.326Z,14.40
2018-09-18T05:54:59.833Z,14.90
2018-09-18T05:57:28.619Z,15.20
2018-09-18T05:59:57.096Z,15.50
2018-09-18T06:02:25.682Z,16.10
2018-09-18T06:04:54.144Z,16.90
2018-09-18T06:07:22.603Z,17.70
2018-09-18T06:09:51.080Z,18.70
2018-09-18T06:12:19.631Z,19.60
2018-09-18T06:14:48.147Z,20.40
2018-09-18T06:17:16.666Z,21.20
2018-09-18T06:19:45.161Z,21.80
2018-09-18T06:22:13.683Z,22.40
2018-09-18T06:24:42.168Z,22.70
2018-09-18T06:27:10.648Z,23.10
2018-09-18T06:29:39.227Z,23.40
2018-09-18T06:32:07.782Z,23.70
2018-09-18T06:34:36.383Z,24.30
2018-09-18T06:37:04.978Z,23.70
2018-09-18T06:39:33.642Z,23.70
2018-09-18T06:42:02.299Z,23.50
2018-09-18T06:44:30.858Z,23.20
2018-09-18T06:46:59.404Z,22.60
2018-09-18T06:49:27.863Z,22.30
2018-09-18T06:51:56.413Z,23.10
2018-09-18T06:54:25.031Z,23.50
2018-09-18T06:56:53.530Z,23.80
2018-09-18T06:59:22.096Z,24.20
2018-09-18T07:01:50.608Z,24.40
2018-09-18T07:04:22.512Z,24.60
2018-09-18T07:06:54.551Z,24.80
2018-09-18T07:09:23.047Z,25.00
2018-09-18T07:11:51.617Z,25.10
2018-09-18T07:14:20.178Z,25.10
2018-09-18T07:16:48.837Z,25.40
2018-09-18T07:19:18.164Z,25.20
2018-09-18T07:21:47.123Z,25.20
2018-09-18T07:24:15.645Z,25.60
2018-09-18T07:26:44.426Z,25.10
2018-09-18T07:29:12.938Z,24.40
2018-09-18T07:31:41.410Z,26.70
2018-09-18T07:34:09.889Z,28.20
2018-09-18T07:36:38.385Z,28.30
2018-09-18T07:39:09.546Z,27.70
2018-09-18T07:41:38.146Z,27.40
2018-09-18T07:44:06.733Z,27.90
2018-09-18T07:46:35.264Z,27.80
2018-09-18T07:49:04.958Z,27.70
2018-09-18T07:51:34.280Z,27.80
2018-09-18T07:54:03.198Z,27.90
2018-09-18T07:56:32.080Z,26.80
2018-09-18T07:59:01.295Z,26.60
2018-09-18T08:01:30.455Z,27.00
2018-09-18T08:03:59.320Z,27.70
2018-09-18T08:06:27.855Z,26.80
2018-09-18T08:08:56.405Z,27.40
2018-09-18T08:11:24.810Z,26.60
2018-09-18T08:13:53.314Z,27.50
2018-09-18T08:16:21.874Z,27.60
2018-09-18T08:18:50.589Z,26.90
2018-09-18T08:21:19.088Z,28.50
2018-09-18T08:23:47.585Z,28.40
2018-09-18T08:26:16.212Z,30.70
2018-09-18T08:28:44.668Z,29.80
2018-09-18T08:31:13.183Z,30.80
2018-09-18T08:33:41.773Z,33.00
2018-09-18T08:36:10.438Z,31.90
2018-09-18T08:38:38.990Z,31.10
2018-09-18T08:41:07.662Z,30.60
2018-09-18T08:43:36.170Z,30.30
2018-09-18T08:46:04.716Z,29.30
2018-09-18T08:48:33.229Z,29.20
2018-09-18T08:51:02.225Z,29.60
2018-09-18T08:53:31.546Z,30.70
2018-09-18T08:56:00.080Z,29.80
2018-09-18T08:58:28.589Z,31.80
2018-09-18T09:00:57.073Z,31.90
2018-09-18T09:03:25.629Z,33.30
2018-09-18T09:05:54.205Z,30.90
2018-09-18T09:08:22.776Z,30.70
2018-09-18T09:10:51.198Z,31.90
2018-09-18T09:13:19.719Z,33.60
2018-09-18T09:15:48.245Z,33.10
2018-09-18T09:18:16.982Z,33.80
2018-09-18T09:20:45.464Z,33.50
2018-09-18T09:23:13.898Z,31.90
2018-09-18T09:25:42.386Z,34.10
2018-09-18T09:28:10.874Z,34.70
2018-09-18T09:30:39.398Z,33.30
2018-09-18T09:33:07.933Z,34.60
2018-09-18T09:35:36.424Z,35.60
2018-09-18T09:38:05.032Z,35.20
2018-09-18T09:40:33.508Z,33.40
2018-09-18T09:43:02.019Z,35.10
2018-09-18T09:45:30.560Z,34.40
2018-09-18T09:47:59.193Z,35.60
2018-09-18T09:50:27.838Z,34.90
2018-09-18T09:52:56.458Z,33.20
2018-09-18T09:55:25.080Z,34.00
2018-09-18T09:57:53.602Z,35.40
2018-09-18T10:00:27.333Z,34.60
2018-09-18T10:02:55.992Z,35.30
2018-09-18T10:05:24.458Z,35.90
2018-09-18T10:07:52.878Z,34.50
2018-09-18T10:10:21.395Z,34.60
2018-09-18T10:12:49.761Z,35.20
2018-09-18T10:15:18.215Z,34.90
2018-09-18T10:17:46.764Z,32.60
2018-09-18T10:20:15.224Z,34.50
2018-09-18T10:22:43.778Z,34.40
2018-09-18T10:25:12.273Z,35.10
2018-09-18T10:27:40.848Z,33.00
2018-09-18T10:30:09.472Z,32.80
2018-09-18T10:32:38.151Z,31.80
2018-09-18T10:35:06.750Z,32.50
2018-09-18T10:37:35.533Z,34.10
2018-09-18T10:40:04.063Z,33.80
2018-09-18T10:42:32.648Z,35.40
2018-09-18T10:45:01.180Z,36.10
2018-09-18T10:47:29.755Z,36.30
2018-09-18T10:49:58.319Z,37.10
2018-09-18T10:52:26.833Z,37.10
2018-09-18T10:54:55.404Z,36.40
2018-09-18T10:57:23.936Z,37.50
2018-09-18T10:59:52.455Z,36.80
2018-09-18T11:02:21.025Z,36.70
2018-09-18T11:04:49.506Z,37.10
2018-09-18T11:07:18.086Z,35.70
2018-09-18T11:09:46.598Z,35.70
2018-09-18T11:12:15.340Z,36.50
2018-09-18T11:14:43.949Z,36.80
2018-09-18T11:17:12.417Z,36.00
2018-09-18T11:19:41.011Z,32.60
2018-09-18T11:22:09.653Z,35.10
2018-09-18T11:24:38.063Z,36.40
2018-09-18T11:27:06.690Z,36.50
2018-09-18T11:29:35.292Z,36.90
2018-09-18T11:32:03.830Z,36.70
2018-09-18T11:34:32.388Z,36.80
2018-09-18T11:37:01.114Z,35.20
2018-09-18T11:39:29.719Z,34.60
2018-09-18T11:41:58.318Z,35.10
2018-09-18T11:44:26.785Z,35.70
2018-09-18T11:46:55.435Z,38.60
2018-09-18T11:49:24.041Z,35.90
2018-09-18T11:51:52.667Z,37.70
2018-09-18T11:54:21.215Z,37.30
2018-09-18T11:56:50.123Z,38.50
2018-09-18T11:59:18.800Z,38.90
2018-09-18T12:01:47.493Z,36.50
2018-09-18T12:04:15.960Z,37.30
2018-09-18T12:06:44.555Z,37.40
2018-09-18T12:09:13.203Z,38.40
2018-09-18T12:11:42.301Z,36.10
2018-09-18T12:14:10.911Z,34.10
2018-09-18T12:16:39.716Z,34.60
2018-09-18T12:19:08.346Z,35.90
2018-09-18T12:21:36.897Z,36.20
2018-09-18T12:24:05.431Z,35.50
2018-09-18T12:26:34.255Z,35.40
2018-09-18T12:29:02.966Z,35.90
2018-09-18T12:31:36.987Z,35.30
2018-09-18T12:34:05.985Z,36.30
2018-09-18T12:36:34.630Z,38.50
2018-09-18T12:39:03.443Z,37.00
2018-09-18T12:41:32.065Z,36.70
2018-09-18T12:44:00.587Z,35.80
2018-09-18T12:46:29.187Z,35.90
2018-09-18T12:48:57.778Z,36.20
2018-09-18T12:51:26.317Z,36.50
2018-09-18T12:53:54.858Z,37.00
2018-09-18T12:56:23.386Z,37.30
2018-09-18T12:58:51.941Z,37.70
2018-09-18T13:01:20.471Z,35.00
2018-09-18T13:03:49.056Z,33.80
2018-09-18T13:06:17.594Z,35.40
2018-09-18T13:08:46.288Z,35.30
2018-09-18T13:11:15.060Z,34.40
2018-09-18T13:13:43.816Z,35.70
2018-09-18T13:16:12.356Z,36.90
2018-09-18T13:18:40.833Z,36.40
2018-09-18T13:21:09.351Z,36.00
2018-09-18T13:23:37.920Z,35.70
2018-09-18T13:26:06.824Z,36.00
2018-09-18T13:28:35.419Z,37.20
2018-09-18T13:31:03.942Z,36.90
2018-09-18T13:33:32.552Z,37.50
2018-09-18T13:36:01.075Z,36.70
2018-09-18T13:38:29.483Z,37.50
2018-09-18T13:40:58.129Z,37.90
2018-09-18T13:43:26.783Z,38.60
2018-09-18T13:45:55.504Z,36.80
2018-09-18T13:48:24.258Z,37.90
2018-09-18T13:50:52.868Z,36.80
2018-09-18T13:53:21.569Z,37.40
2018-09-18T13:55:50.179Z,38.30
2018-09-18T13:58:18.702Z,37.70
2018-09-18T14:00:47.502Z,36.80
2018-09-18T14:03:15.995Z,37.50
2018-09-18T14:05:44.658Z,37.80
2018-09-18T14:08:13.259Z,36.50
2018-09-18T14:10:41.854Z,38.40
2018-09-18T14:13:10.407Z,37.60
2018-09-18T14:15:38.888Z,36.70
2018-09-18T14:18:07.532Z,36.80
2018-09-18T14:20:36.081Z,37.70
2018-09-18T14:23:04.641Z,37.40
2018-09-18T14:25:33.293Z,37.70
2018-09-18T14:28:01.981Z,38.10
2018-09-18T14:30:31.479Z,37.30
2018-09-18T14:33:00.148Z,36.90
2018-09-18T14:35:28.985Z,36.80
2018-09-18T14:37:57.663Z,36.20
2018-09-18T14:40:26.282Z,35.80
2018-09-18T14:42:54.831Z,35.50
2018-09-18T14:45:23.381Z,35.20
2018-09-18T14:47:51.896Z,33.50
2018-09-18T14:50:20.459Z,32.50
2018-09-18T14:52:49.038Z,32.00
2018-09-18T14:55:17.807Z,32.90
2018-09-18T14:57:46.366Z,34.10
2018-09-18T15:00:14.932Z,33.90
2018-09-18T15:02:43.491Z,34.40
2018-09-18T15:05:12.416Z,33.50
2018-09-18T15:07:40.885Z,33.10
2018-09-18T15:10:09.571Z,31.90
2018-09-18T15:12:38.333Z,31.30
2018-09-18T15:15:06.887Z,32.20
2018-09-18T15:17:35.563Z,33.20
2018-09-18T15:20:04.601Z,32.40
2018-09-18T15:22:33.474Z,32.30
2018-09-18T15:25:02.230Z,32.00
2018-09-18T15:27:30.815Z,31.60
2018-09-18T15:29:59.412Z,31.50
2018-09-18T15:32:28.113Z,30.40
2018-09-18T15:34:56.815Z,29.40
2018-09-18T15:37:25.334Z,28.60
2018-09-18T15:39:54.022Z,28.40
2018-09-18T15:42:22.571Z,28.10
2018-09-18T15:44:51.085Z,27.90
2018-09-18T15:47:19.614Z,27.60
2018-09-18T15:49:48.050Z,27.70
2018-09-18T15:52:16.547Z,27.70
2018-09-18T15:54:45.063Z,27.50
2018-09-18T15:57:13.868Z,27.50
2018-09-18T15:59:42.377Z,27.40
2018-09-18T16:02:11.235Z,27.20
2018-09-18T16:04:39.958Z,27.20
2018-09-18T16:07:08.477Z,27.20
2018-09-18T16:09:37.182Z,27.10
2018-09-18T16:12:05.944Z,27.00
2018-09-18T16:14:34.450Z,27.00
2018-09-18T16:17:02.905Z,26.90
2018-09-18T16:19:31.422Z,26.90
2018-09-18T16:22:00.005Z,26.80
2018-09-18T16:24:28.554Z,26.70
2018-09-18T16:26:57.126Z,26.50
2018-09-18T16:29:26.066Z,26.30
2018-09-18T16:31:54.606Z,26.10
2018-09-18T16:34:23.035Z,26.10
2018-09-18T16:36:51.682Z,25.90
2018-09-18T16:39:20.196Z,25.80
2018-09-18T16:41:48.787Z,25.60
2018-09-18T16:44:17.834Z,25.40
2018-09-18T16:46:46.363Z,25.10
2018-09-18T16:49:15.159Z,24.80
2018-09-18T16:51:43.734Z,24.50
2018-09-18T16:54:12.438Z,24.20
2018-09-18T16:56:41.084Z,23.80
2018-09-18T16:59:09.915Z,23.50
2018-09-18T17:01:38.584Z,23.20
2018-09-18T17:04:07.017Z,23.00
2018-09-18T17:06:35.458Z,22.70
2018-09-18T17:09:04.976Z,22.50
2018-09-18T17:11:33.705Z,22.40
2018-09-18T17:14:02.258Z,22.20
2018-09-18T17:16:30.926Z,22.10
2018-09-18T17:18:59.618Z,21.90
2018-09-18T17:21:28.298Z,21.80
2018-09-18T17:23:56.757Z,21.60
2018-09-18T17:26:25.210Z,21.70
2018-09-18T17:28:53.829Z,21.80
2018-09-18T17:31:22.217Z,21.70
2018-09-18T17:33:52.493Z,21.70
2018-09-18T17:36:21.206Z,21.50
2018-09-18T17:38:49.978Z,21.20
2018-09-18T17:41:18.674Z,21.10
2018-09-18T17:43:47.371Z,21.10
2018-09-18T17:46:15.962Z,21.10
2018-09-18T17:48:44.535Z,21.20
2018-09-18T17:51:13.426Z,21.30
2018-09-18T17:53:42.018Z,21.40
2018-09-18T17:56:10.617Z,21.40
2018-09-18T17:58:39.214Z,21.30
2018-09-18T18:01:07.917Z,21.30
2018-09-18T18:03:36.337Z,21.30
2018-09-18T18:06:05.157Z,21.40
2018-09-18T18:08:33.682Z,21.50
2018-09-18T18:11:02.350Z,21.50
2018-09-18T18:13:30.942Z,21.60
2018-09-18T18:15:59.662Z,21.70
2018-09-18T18:18:28.078Z,21.80
2018-09-18T18:20:58.483Z,21.90
2018-09-18T18:23:26.943Z,21.90
2018-09-18T18:25:55.212Z,21.90
2018-09-18T18:28:23.726Z,22.00
2018-09-18T18:30:52.001Z,22.00
2018-09-18T18:33:20.712Z,21.90
2018-09-18T18:35:49.171Z,21.80
2018-09-18T18:38:17.566Z,21.80
2018-09-18T18:40:46.084Z,21.70
2018-09-18T18:43:14.451Z,21.60
2018-09-18T18:45:42.789Z,21.50
2018-09-18T18:48:11.283Z,21.40
2018-09-18T18:50:39.528Z,21.30
2018-09-18T18:53:07.934Z,21.10
2018-09-18T18:55:38.977Z,21.00
2018-09-18T18:58:09.093Z,21.00
2018-09-18T19:00:37.555Z,20.90
2018-09-18T19:03:06.065Z,20.90
2018-09-18T19:05:34.423Z,20.80
2018-09-18T19:08:02.787Z,20.70
2018-09-18T19:10:31.106Z,20.60
2018-09-18T19:12:59.776Z,20.50
2018-09-18T19:15:28.068Z,20.50
2018-09-18T19:17:56.373Z,20.40
2018-09-18T19:20:24.686Z,20.30
2018-09-18T19:22:53.061Z,20.20
2018-09-18T19:25:21.362Z,20.20
2018-09-18T19:28:02.214Z,20.10
2018-09-18T19:30:30.578Z,20.10
2018-09-18T19:32:59.362Z,20.00
2018-09-18T19:35:27.811Z,19.90
2018-09-18T19:37:56.347Z,19.90
2018-09-18T19:40:24.670Z,19.80
2018-09-18T19:42:53.232Z,19.80
2018-09-18T19:45:21.668Z,19.70
2018-09-18T19:47:49.975Z,19.60
2018-09-18T19:50:18.919Z,19.60
2018-09-18T19:52:48.284Z,19.50
2018-09-18T19:55:17.348Z,19.50
2018-09-18T19:57:46.212Z,19.40
2018-09-18T20:00:14.515Z,19.40
2018-09-18T20:02:43.881Z,19.40
2018-09-18T20:05:13.474Z,19.30
2018-09-18T20:07:42.264Z,19.30
2018-09-18T20:10:10.589Z,19.20
2018-09-18T20:12:38.881Z,19.20
2018-09-18T20:15:07.193Z,19.20
2018-09-18T20:17:35.619Z,19.10
2018-09-18T20:20:04.171Z,19.10
2018-09-18T20:22:32.602Z,19.00
2018-09-18T20:25:00.921Z,18.90
2018-09-18T20:27:29.303Z,18.90
2018-09-18T20:29:57.640Z,18.90
2018-09-18T20:32:25.937Z,18.90
2018-09-18T20:34:54.254Z,18.90
2018-09-18T20:37:22.547Z,18.90
2018-09-18T20:39:50.838Z,18.90
2018-09-18T20:42:19.186Z,18.80
2018-09-18T20:44:47.580Z,18.70
2018-09-18T20:47:18.340Z,18.70
2018-09-18T20:49:46.729Z,18.70
2018-09-18T20:52:19.223Z,18.70
2018-09-18T20:54:47.551Z,18.70
2018-09-18T20:57:15.892Z,18.70
2018-09-18T20:59:44.376Z,18.70
2018-09-18T21:02:12.716Z,18.60
2018-09-18T21:04:41.073Z,18.60
2018-09-18T21:07:09.500Z,18.60
2018-09-18T21:09:37.849Z,18.50
2018-09-18T21:12:06.184Z,18.50
2018-09-18T21:14:34.485Z,18.50
2018-09-18T21:17:02.870Z,18.40
2018-09-18T21:19:31.159Z,18.40
2018-09-18T21:21:59.440Z,18.40
2018-09-18T21:24:27.755Z,18.40
2018-09-18T21:26:56.024Z,18.40
2018-09-18T21:29:24.330Z,18.30
2018-09-18T21:31:52.620Z,18.30
2018-09-18T21:34:20.922Z,18.30
2018-09-18T21:36:49.369Z,18.30
2018-09-18T21:39:17.717Z,18.30
2018-09-18T21:41:46.026Z,18.30
2018-09-18T21:44:14.328Z,18.20
2018-09-18T21:46:42.631Z,18.20
2018-09-18T21:49:10.923Z,18.10
2018-09-18T21:51:39.242Z,18.00
2018-09-18T21:54:07.527Z,17.90
2018-09-18T21:56:35.839Z,17.90
2018-09-18T21:59:04.157Z,17.80
2018-09-18T22:01:32.537Z,17.70
2018-09-18T22:04:00.724Z,17.70
2018-09-18T22:06:29.001Z,17.70
2018-09-18T22:08:57.393Z,17.70
2018-09-18T22:11:25.688Z,17.70
2018-09-18T22:13:54.012Z,17.80
2018-09-18T22:16:22.277Z,17.70
2018-09-18T22:18:50.567Z,17.80
2018-09-18T22:21:18.848Z,17.70
2018-09-18T22:23:47.121Z,17.70
2018-09-18T22:26:15.453Z,17.70
2018-09-18T22:28:43.743Z,17.70
2018-09-18T22:31:12.057Z,17.70
2018-09-18T22:33:40.333Z,17.60
2018-09-18T22:36:08.621Z,17.60
2018-09-18T22:38:36.902Z,17.60
2018-09-18T22:41:05.397Z,17.60
2018-09-18T22:43:33.687Z,17.60
2018-09-18T22:46:02.048Z,17.60
2018-09-18T22:48:30.338Z,17.60
2018-09-18T22:50:58.625Z,17.60
2018-09-18T22:53:26.896Z,17.60
2018-09-18T22:55:55.176Z,17.70
2018-09-18T22:58:23.451Z,17.60
2018-09-18T23:00:51.733Z,17.70
2018-09-18T23:03:20.017Z,17.70
2018-09-18T23:05:48.285Z,17.70
2018-09-18T23:08:16.561Z,17.70
2018-09-18T23:10:44.874Z,17.70
2018-09-18T23:13:13.234Z,17.80
2018-09-18T23:15:41.511Z,17.80
2018-09-18T23:18:09.789Z,17.80
2018-09-18T23:20:38.071Z,17.90
2018-09-18T23:23:06.340Z,17.90
2018-09-18T23:25:34.613Z,17.80
2018-09-18T23:28:02.887Z,17.70
2018-09-18T23:30:31.174Z,17.70
2018-09-18T23:32:59.446Z,17.60
2018-09-18T23:35:27.746Z,17.60
2018-09-18T23:37:56.004Z,17.50
2018-09-18T23:40:24.276Z,17.40
2018-09-18T23:42:52.599Z,17.30
2018-09-18T23:45:20.943Z,17.30
2018-09-18T23:47:49.223Z,17.20
2018-09-18T23:50:17.500Z,17.20
2018-09-18T23:52:45.757Z,17.10
2018-09-18T23:55:14.062Z,17.10
2018-09-18T23:57:42.377Z,17.10
